createdAt,value
2019-02-14T00:00:25.492Z,6.64
2019-02-14T00:02:54.896Z,6.61
2019-02-14T00:05:24.112Z,6.55
2019-02-14T00:07:53.677Z,6.51
2019-02-14T00:10:22.903Z,6.55
2019-02-14T00:12:52.124Z,6.48
2019-02-14T00:15:21.622Z,6.35
2019-02-14T00:17:50.917Z,6.38
2019-02-14T00:20:20.137Z,6.32
2019-02-14T00:22:49.382Z,6.32
2019-02-14T00:25:18.643Z,6.30
2019-02-14T00:27:48.211Z,6.31
2019-02-14T00:30:17.667Z,6.25
2019-02-14T00:32:47.856Z,6.23
2019-02-14T00:35:24.889Z,6.12
2019-02-14T00:37:48.154Z,6.07
2019-02-14T00:40:17.727Z,6.16
2019-02-14T00:42:46.952Z,6.22
2019-02-14T00:45:16.205Z,6.08
2019-02-14T00:47:47.906Z,6.10
2019-02-14T00:50:17.205Z,6.05
2019-02-14T00:52:46.417Z,6.10
2019-02-14T00:55:16.124Z,6.10
2019-02-14T00:57:45.344Z,6.03
2019-02-14T01:00:15.031Z,5.93
2019-02-14T01:02:44.678Z,5.97
2019-02-14T01:05:16.468Z,6.00
2019-02-14T01:07:45.812Z,6.00
2019-02-14T01:10:15.073Z,5.97
2019-02-14T01:12:44.581Z,5.91
2019-02-14T01:15:15.948Z,5.79
2019-02-14T01:17:46.452Z,5.86
2019-02-14T01:20:16.048Z,5.87
2019-02-14T01:22:45.502Z,5.83
2019-02-14T01:25:16.143Z,5.80
2019-02-14T01:27:45.420Z,5.77
2019-02-14T01:30:14.862Z,5.74
2019-02-14T01:32:44.328Z,5.69
2019-02-14T01:35:13.822Z,5.72
2019-02-14T01:37:43.506Z,5.73
2019-02-14T01:40:13.490Z,5.67
2019-02-14T01:42:42.756Z,5.69
2019-02-14T01:45:12.361Z,5.67
2019-02-14T01:47:41.604Z,5.55
2019-02-14T01:50:10.872Z,5.63
2019-02-14T01:52:40.123Z,5.62
2019-02-14T01:55:09.996Z,5.63
2019-02-14T01:57:39.225Z,5.57
2019-02-14T02:00:11.834Z,5.55
2019-02-14T02:02:42.824Z,5.53
2019-02-14T02:05:12.042Z,5.47
2019-02-14T02:07:41.281Z,5.51
2019-02-14T02:10:11.939Z,5.46
2019-02-14T02:12:41.253Z,5.48
2019-02-14T02:15:12.101Z,5.50
2019-02-14T02:17:41.755Z,5.47
2019-02-14T02:20:11.950Z,5.48
2019-02-14T02:22:41.177Z,5.49
2019-02-14T02:25:11.417Z,5.47
2019-02-14T02:27:40.637Z,5.48
2019-02-14T02:30:12.085Z,5.44
2019-02-14T02:32:41.351Z,5.41
2019-02-14T02:35:11.494Z,5.42
2019-02-14T02:37:40.724Z,5.36
2019-02-14T02:40:10.423Z,5.39
2019-02-14T02:42:39.648Z,5.37
2019-02-14T02:45:10.444Z,5.35
2019-02-14T02:47:41.000Z,5.34
2019-02-14T02:50:12.444Z,5.31
2019-02-14T02:52:41.655Z,5.31
2019-02-14T02:55:11.327Z,5.21
2019-02-14T02:57:40.561Z,5.21
2019-02-14T03:00:13.472Z,5.19
2019-02-14T03:02:42.737Z,5.19
2019-02-14T03:05:13.266Z,5.14
2019-02-14T03:07:42.526Z,5.15
2019-02-14T03:10:12.465Z,5.15
2019-02-14T03:12:41.686Z,5.15
2019-02-14T03:15:12.150Z,5.13
2019-02-14T03:17:41.436Z,5.08
2019-02-14T03:20:11.416Z,5.05
2019-02-14T03:22:40.726Z,5.01
2019-02-14T03:25:12.793Z,4.88
2019-02-14T03:27:42.024Z,4.97
2019-02-14T03:30:12.056Z,4.97
2019-02-14T03:32:41.342Z,4.86
2019-02-14T03:35:10.558Z,4.86
2019-02-14T03:37:40.648Z,4.90
2019-02-14T03:40:11.051Z,4.80
2019-02-14T03:42:40.284Z,4.80
2019-02-14T03:45:12.548Z,4.78
2019-02-14T03:47:42.133Z,4.82
2019-02-14T03:50:11.661Z,4.82
2019-02-14T03:52:41.078Z,4.85
2019-02-14T03:55:10.398Z,4.72
2019-02-14T03:57:40.030Z,4.68
2019-02-14T04:00:11.813Z,4.69
2019-02-14T04:02:41.068Z,4.69
2019-02-14T04:05:10.612Z,4.69
2019-02-14T04:07:40.020Z,4.74
2019-02-14T04:10:10.619Z,4.65
2019-02-14T04:12:39.874Z,4.65
2019-02-14T04:15:11.354Z,4.59
2019-02-14T04:17:41.513Z,4.59
2019-02-14T04:20:11.815Z,4.56
2019-02-14T04:22:42.380Z,4.56
2019-02-14T04:25:15.216Z,4.57
2019-02-14T04:27:52.748Z,4.52
2019-02-14T04:30:24.916Z,4.42
2019-02-14T04:32:54.350Z,4.43
2019-02-14T04:35:23.598Z,4.43
2019-02-14T04:37:54.926Z,4.51
2019-02-14T04:40:33.457Z,4.58
2019-02-14T04:42:57.491Z,4.51
2019-02-14T04:45:26.737Z,4.51
2019-02-14T04:47:55.968Z,4.50
2019-02-14T04:50:25.177Z,4.37
2019-02-14T04:52:54.481Z,4.52
2019-02-14T04:55:24.428Z,4.52
2019-02-14T04:57:53.740Z,4.51
2019-02-14T05:00:23.311Z,4.51
2019-02-14T05:02:52.530Z,4.52
2019-02-14T05:05:21.815Z,4.43
2019-02-14T05:07:51.080Z,4.35
2019-02-14T05:10:20.640Z,4.35
2019-02-14T05:12:49.863Z,4.36
2019-02-14T05:15:19.158Z,4.31
2019-02-14T05:17:48.791Z,4.31
2019-02-14T05:20:18.043Z,4.32
2019-02-14T05:22:47.432Z,4.41
2019-02-14T05:25:16.649Z,4.23
2019-02-14T05:27:46.257Z,4.23
2019-02-14T05:30:16.452Z,4.06
2019-02-14T05:32:45.671Z,4.20
2019-02-14T05:35:14.899Z,4.20
2019-02-14T05:37:45.536Z,4.13
2019-02-14T05:40:15.081Z,4.13
2019-02-14T05:42:44.509Z,4.19
2019-02-14T05:45:13.752Z,4.22
2019-02-14T05:47:42.975Z,4.17
2019-02-14T05:50:12.975Z,4.17
2019-02-14T05:52:42.231Z,4.14
2019-02-14T05:55:11.565Z,4.16
2019-02-14T05:57:40.846Z,4.11
2019-02-14T06:00:12.473Z,4.09
2019-02-14T06:02:41.842Z,4.09
2019-02-14T06:05:11.847Z,4.04
2019-02-14T06:07:41.167Z,3.97
2019-02-14T06:10:14.240Z,3.97
2019-02-14T06:12:43.488Z,3.94
2019-02-14T06:15:13.058Z,3.91
2019-02-14T06:17:42.618Z,4.05
2019-02-14T06:20:12.448Z,4.03
2019-02-14T06:22:42.419Z,4.03
2019-02-14T06:25:12.076Z,4.15
2019-02-14T06:27:41.335Z,4.15
2019-02-14T06:30:12.816Z,3.95
2019-02-14T06:32:41.989Z,3.97
2019-02-14T06:38:29.501Z,3.93
2019-02-14T06:40:58.813Z,3.92
2019-02-14T06:43:28.180Z,4.02
2019-02-14T06:46:00.517Z,4.07
2019-02-14T06:48:29.912Z,4.07
2019-02-14T06:50:59.153Z,4.12
2019-02-14T06:53:29.268Z,4.12
2019-02-14T06:55:59.083Z,4.11
2019-02-14T06:58:34.083Z,4.06
2019-02-14T07:01:06.890Z,4.06
2019-02-14T07:03:36.147Z,4.03
2019-02-14T07:06:08.375Z,4.08
2019-02-14T07:08:37.986Z,4.08
2019-02-14T07:11:07.240Z,4.03
2019-02-14T07:13:36.558Z,4.03
2019-02-14T07:16:10.407Z,3.96
2019-02-14T07:22:40.448Z,4.07
2019-02-14T07:25:10.088Z,4.10
2019-02-14T07:27:39.382Z,4.19
2019-02-14T07:30:12.266Z,4.21
2019-02-14T07:32:41.691Z,4.34
2019-02-14T07:35:11.746Z,4.34
2019-02-14T07:37:41.061Z,4.32
2019-02-14T07:40:11.826Z,4.45
2019-02-14T07:42:52.396Z,4.48
2019-02-14T07:45:30.033Z,4.62
2019-02-14T07:48:05.968Z,4.94
2019-02-14T07:50:35.510Z,5.26
2019-02-14T07:53:04.968Z,5.43
2019-02-14T07:55:35.163Z,5.77
2019-02-14T07:58:06.729Z,6.14
2019-02-14T08:00:36.051Z,6.57
2019-02-14T08:03:05.674Z,7.07
2019-02-14T08:05:34.982Z,7.70
2019-02-14T08:08:07.457Z,8.29
2019-02-14T08:10:37.111Z,8.95
2019-02-14T08:13:06.400Z,9.32
2019-02-14T08:15:35.633Z,9.96
2019-02-14T08:18:06.023Z,10.78
2019-02-14T08:20:35.322Z,11.20
2019-02-14T08:23:04.606Z,11.46
2019-02-14T08:25:34.202Z,11.49
2019-02-14T08:28:04.383Z,11.34
2019-02-14T08:30:34.082Z,11.55
2019-02-14T08:33:03.737Z,11.42
2019-02-14T08:35:32.992Z,11.40
2019-02-14T08:38:05.102Z,11.46
2019-02-14T08:40:34.716Z,11.09
2019-02-14T08:43:03.963Z,10.52
2019-02-14T08:45:33.196Z,10.13
2019-02-14T08:48:04.769Z,9.76
2019-02-14T08:50:34.926Z,9.48
2019-02-14T08:53:04.229Z,9.35
2019-02-14T08:55:33.965Z,9.21
2019-02-14T08:58:04.092Z,8.98
2019-02-14T09:00:33.440Z,8.80
2019-02-14T09:03:03.115Z,8.65
2019-02-14T09:05:32.628Z,8.50
2019-02-14T09:08:03.599Z,8.49
2019-02-14T09:10:33.268Z,8.48
2019-02-14T09:13:02.925Z,8.45
2019-02-14T09:15:32.256Z,8.44
2019-02-14T09:18:02.968Z,8.43
2019-02-14T09:20:32.191Z,8.46
2019-02-14T09:23:01.690Z,8.44
2019-02-14T09:25:31.732Z,8.38
2019-02-14T09:28:01.393Z,8.50
2019-02-14T09:30:31.138Z,8.83
2019-02-14T09:33:00.993Z,9.42
2019-02-14T09:35:30.331Z,9.93
2019-02-14T09:38:03.399Z,10.38
2019-02-14T09:40:30.926Z,10.92
2019-02-14T09:43:00.197Z,11.40
2019-02-14T09:45:29.708Z,11.96
2019-02-14T09:48:00.414Z,12.33
2019-02-14T09:50:31.553Z,12.99
2019-02-14T09:53:01.909Z,13.40
2019-02-14T09:55:31.756Z,13.89
2019-02-14T09:58:05.652Z,14.28
2019-02-14T10:00:35.350Z,14.62
2019-02-14T10:03:04.894Z,14.79
2019-02-14T10:05:34.176Z,15.17
2019-02-14T10:08:12.557Z,15.58
2019-02-14T10:10:37.614Z,15.83
2019-02-14T10:13:07.003Z,15.95
2019-02-14T10:15:36.289Z,15.89
2019-02-14T10:18:15.186Z,15.77
2019-02-14T10:20:46.708Z,15.43
2019-02-14T10:23:15.937Z,15.50
2019-02-14T10:25:45.513Z,15.54
2019-02-14T10:28:14.817Z,15.45
2019-02-14T10:30:44.071Z,15.33
2019-02-14T10:33:13.698Z,14.74
2019-02-14T10:35:43.037Z,14.54
2019-02-14T10:38:21.731Z,14.77
2019-02-14T10:40:43.983Z,15.25
2019-02-14T10:43:13.689Z,15.87
2019-02-14T10:45:43.418Z,16.61
2019-02-14T10:48:13.663Z,17.11
2019-02-14T10:50:43.022Z,17.56
2019-02-14T10:53:12.569Z,17.94
2019-02-14T10:55:43.065Z,18.18
2019-02-14T10:58:12.686Z,18.13
2019-02-14T11:00:42.103Z,17.73
2019-02-14T11:03:11.805Z,17.78
2019-02-14T11:05:41.068Z,18.28
2019-02-14T11:08:10.993Z,19.01
2019-02-14T11:10:40.530Z,19.30
2019-02-14T11:13:09.877Z,19.76
2019-02-14T11:15:39.178Z,20.36
2019-02-14T11:18:08.808Z,20.89
2019-02-14T11:20:38.098Z,21.36
2019-02-14T11:23:07.310Z,21.35
2019-02-14T11:25:40.194Z,21.39
2019-02-14T11:28:10.091Z,20.79
2019-02-14T11:30:39.342Z,19.90
2019-02-14T11:33:08.884Z,19.34
2019-02-14T11:35:38.166Z,19.21
2019-02-14T11:38:07.443Z,19.47
2019-02-14T11:40:36.973Z,19.91
2019-02-14T11:43:06.598Z,20.28
2019-02-14T11:45:35.862Z,20.59
2019-02-14T11:48:06.518Z,20.85
2019-02-14T11:50:35.934Z,20.93
2019-02-14T11:53:14.022Z,20.81
2019-02-14T11:55:36.785Z,20.36
2019-02-14T11:58:07.008Z,20.70
2019-02-14T12:00:36.263Z,20.94
2019-02-14T12:03:05.938Z,21.13
2019-02-14T12:05:35.221Z,21.41
2019-02-14T12:08:09.457Z,21.64
2019-02-14T12:10:39.972Z,21.69
2019-02-14T12:13:09.222Z,21.43
2019-02-14T12:15:38.469Z,21.34
2019-02-14T12:18:08.070Z,21.32
2019-02-14T12:20:37.437Z,21.30
2019-02-14T12:23:06.690Z,21.14
2019-02-14T12:25:36.316Z,20.71
2019-02-14T12:28:08.374Z,20.41
2019-02-14T12:30:37.792Z,20.29
2019-02-14T12:33:07.485Z,19.91
2019-02-14T12:35:36.734Z,19.71
2019-02-14T12:38:06.419Z,19.73
2019-02-14T12:40:36.093Z,19.67
2019-02-14T12:43:05.373Z,19.73
2019-02-14T12:45:34.640Z,19.51
2019-02-14T12:48:05.275Z,19.43
2019-02-14T12:50:35.848Z,19.71
2019-02-14T12:53:05.430Z,20.02
2019-02-14T12:55:35.083Z,20.29
2019-02-14T12:58:06.132Z,20.14
2019-02-14T13:00:35.549Z,19.84
2019-02-14T13:03:05.548Z,19.67
2019-02-14T13:05:34.838Z,19.47
2019-02-14T13:08:05.422Z,19.46
2019-02-14T13:10:35.122Z,19.31
2019-02-14T13:13:04.674Z,19.66
2019-02-14T13:15:34.001Z,20.14
2019-02-14T13:18:08.183Z,20.73
2019-02-14T13:20:37.532Z,21.11
2019-02-14T13:23:07.604Z,20.78
2019-02-14T13:25:37.525Z,20.27
2019-02-14T13:28:06.972Z,19.55
2019-02-14T13:30:36.306Z,19.01
2019-02-14T13:33:05.940Z,18.51
2019-02-14T13:35:35.223Z,18.18
2019-02-14T13:38:05.423Z,17.77
2019-02-14T13:40:35.146Z,17.35
2019-02-14T13:43:05.131Z,17.09
2019-02-14T13:45:34.383Z,16.85
2019-02-14T13:48:05.606Z,16.82
2019-02-14T13:50:34.863Z,16.95
2019-02-14T13:53:04.601Z,16.89
2019-02-14T13:55:34.457Z,16.92
2019-02-14T13:58:04.945Z,16.92
2019-02-14T14:00:34.276Z,16.73
2019-02-14T14:03:05.800Z,16.57
2019-02-14T14:05:35.254Z,16.40
2019-02-14T14:08:05.879Z,16.21
2019-02-14T14:10:35.461Z,16.04
2019-02-14T14:13:04.932Z,15.97
2019-02-14T14:15:34.168Z,15.88
2019-02-14T14:18:04.721Z,15.78
2019-02-14T14:20:34.177Z,15.61
2019-02-14T14:23:03.962Z,15.47
2019-02-14T14:25:33.858Z,15.38
2019-02-14T14:28:04.040Z,15.35
2019-02-14T14:30:33.314Z,15.31
2019-02-14T14:33:03.188Z,15.30
2019-02-14T14:35:32.747Z,15.27
2019-02-14T14:41:15.034Z,15.02
2019-02-14T14:44:05.791Z,14.97
2019-02-14T14:46:56.913Z,14.89
2019-02-14T14:49:26.506Z,14.86
2019-02-14T14:51:55.770Z,14.83
2019-02-14T14:54:26.043Z,14.76
2019-02-14T14:57:13.368Z,14.67
2019-02-14T14:59:43.773Z,14.59
2019-02-14T15:02:15.661Z,14.51
2019-02-14T15:04:45.438Z,14.46
2019-02-14T15:07:17.025Z,14.41
2019-02-14T15:09:47.044Z,14.36
2019-02-14T15:12:17.347Z,14.35
2019-02-14T15:14:49.706Z,14.30
2019-02-14T15:17:19.133Z,14.23
2019-02-14T15:19:48.524Z,14.19
2019-02-14T15:22:18.357Z,14.14
2019-02-14T15:24:48.402Z,14.07
2019-02-14T15:27:17.807Z,14.02
2019-02-14T15:29:49.672Z,13.94
2019-02-14T15:32:19.034Z,13.86
2019-02-14T15:34:48.448Z,13.77
2019-02-14T15:37:18.564Z,13.65
2019-02-14T15:39:48.221Z,13.57
2019-02-14T15:42:18.340Z,13.44
2019-02-14T15:44:48.006Z,13.48
2019-02-14T15:47:17.812Z,13.49
2019-02-14T15:49:49.350Z,13.45
2019-02-14T15:52:18.990Z,13.39
2019-02-14T15:54:48.245Z,13.42
2019-02-14T15:57:18.767Z,13.49
2019-02-14T15:59:49.355Z,13.59
2019-02-14T16:02:18.623Z,13.58
2019-02-14T16:04:48.216Z,13.52
2019-02-14T16:07:18.530Z,13.38
2019-02-14T16:09:48.817Z,13.26
2019-02-14T16:12:20.121Z,13.09
2019-02-14T16:14:49.860Z,12.91
2019-02-14T16:17:19.236Z,12.76
2019-02-14T16:19:49.034Z,12.60
2019-02-14T16:22:19.550Z,12.44
2019-02-14T16:24:51.297Z,12.27
2019-02-14T16:27:22.585Z,12.14
2019-02-14T16:29:52.552Z,12.04
2019-02-14T16:32:21.931Z,11.93
2019-02-14T16:34:51.771Z,11.76
2019-02-14T16:37:22.282Z,11.68
2019-02-14T16:39:54.116Z,11.64
2019-02-14T16:42:23.354Z,11.55
2019-02-14T16:44:54.437Z,11.48
2019-02-14T16:47:23.790Z,11.41
2019-02-14T16:49:57.144Z,11.35
2019-02-14T16:52:26.977Z,11.28
2019-02-14T16:54:56.340Z,11.16
2019-02-14T16:57:32.569Z,11.10
2019-02-14T17:00:05.108Z,11.08
2019-02-14T17:02:35.895Z,10.97
2019-02-14T17:05:07.182Z,10.95
2019-02-14T17:07:36.683Z,10.92
2019-02-14T17:10:10.560Z,10.85
2019-02-14T17:12:45.363Z,10.78
2019-02-14T17:15:18.329Z,10.67
2019-02-14T17:17:47.779Z,10.64
2019-02-14T17:20:17.426Z,10.64
2019-02-14T17:22:47.016Z,10.62
2019-02-14T17:32:25.854Z,10.49
2019-02-14T17:34:58.109Z,10.41
2019-02-14T17:37:28.848Z,10.33
2019-02-14T17:40:11.230Z,10.32
2019-02-14T17:42:40.832Z,10.32
2019-02-14T17:45:15.197Z,10.26
2019-02-14T17:47:47.351Z,10.21
2019-02-14T17:50:17.611Z,10.21
2019-02-14T17:52:49.621Z,10.16
2019-02-14T17:55:19.794Z,10.13
2019-02-14T17:57:51.035Z,10.12
2019-02-14T18:00:21.592Z,10.08
2019-02-14T18:02:56.284Z,10.05
2019-02-14T18:05:26.758Z,9.99
2019-02-14T18:07:58.197Z,9.86
2019-02-14T18:10:30.388Z,9.86
2019-02-14T18:13:01.358Z,9.85
2019-02-14T18:15:31.912Z,9.84
2019-02-14T18:18:05.997Z,9.77
2019-02-14T18:20:43.690Z,9.67
2019-02-14T18:23:13.991Z,9.68
2019-02-14T18:25:44.666Z,9.68
2019-02-14T18:28:15.630Z,9.62
2019-02-14T18:30:46.207Z,9.66
2019-02-14T18:33:16.691Z,9.66
2019-02-14T18:35:48.092Z,9.62
2019-02-14T18:38:19.870Z,9.60
2019-02-14T18:40:50.297Z,9.51
2019-02-14T18:43:20.087Z,9.52
2019-02-14T18:45:50.495Z,9.52
2019-02-14T18:48:28.428Z,9.48
2019-02-14T18:50:59.217Z,9.40
2019-02-14T18:53:29.353Z,9.40
2019-02-14T18:55:59.677Z,9.43
2019-02-14T18:58:30.794Z,9.43
2019-02-14T19:01:00.602Z,9.40
2019-02-14T19:03:30.902Z,9.40
2019-02-14T19:06:00.980Z,9.36
2019-02-14T19:08:31.264Z,9.27
2019-02-14T19:11:01.354Z,9.22
2019-02-14T19:13:31.704Z,9.23
2019-02-14T19:16:02.974Z,9.24
2019-02-14T19:18:32.955Z,9.20
2019-02-14T19:21:04.823Z,9.21
2019-02-14T19:23:35.937Z,9.20
2019-02-14T19:26:07.614Z,9.21
2019-02-14T19:28:37.796Z,9.20
2019-02-14T19:31:07.889Z,9.17
2019-02-14T19:33:38.316Z,9.14
2019-02-14T19:36:08.724Z,9.13
2019-02-14T19:38:39.136Z,9.10
2019-02-14T19:41:09.619Z,9.03
2019-02-14T19:43:39.678Z,9.03
2019-02-14T19:46:09.620Z,8.98
2019-02-14T19:48:39.466Z,8.97
2019-02-14T19:51:11.673Z,8.97
2019-02-14T19:53:41.517Z,8.95
2019-02-14T19:56:11.673Z,8.95
2019-02-14T19:58:42.208Z,8.84
2019-02-14T20:01:11.890Z,8.87
2019-02-14T20:03:41.631Z,8.83
2019-02-14T20:06:12.303Z,8.74
2019-02-14T20:08:42.006Z,8.76
2019-02-14T20:11:11.918Z,8.76
2019-02-14T20:13:49.365Z,8.71
2019-02-14T20:16:15.126Z,8.68
2019-02-14T20:18:45.305Z,8.59
2019-02-14T20:21:15.876Z,8.62
2019-02-14T20:23:45.850Z,8.60
2019-02-14T20:26:15.537Z,8.58
2019-02-14T20:31:27.509Z,8.56
2019-02-14T20:33:57.226Z,8.50
2019-02-14T20:36:27.417Z,8.50
2019-02-14T20:38:57.450Z,8.49
2019-02-14T20:41:27.240Z,8.39
2019-02-14T20:43:59.578Z,8.44
2019-02-14T20:46:29.367Z,8.38
2019-02-14T20:48:59.038Z,8.38
2019-02-14T20:51:38.084Z,8.38
2019-02-14T20:54:00.741Z,8.37
2019-02-14T20:56:31.831Z,8.29
2019-02-14T20:59:01.856Z,8.26
2019-02-14T21:01:31.635Z,8.24
2019-02-14T21:04:01.384Z,8.23
2019-02-14T21:06:32.177Z,8.17
2019-02-14T21:09:01.900Z,8.20
2019-02-14T21:11:31.787Z,8.16
2019-02-14T21:14:03.793Z,8.17
2019-02-14T21:16:33.247Z,8.13
2019-02-14T21:19:03.188Z,8.02
2019-02-14T21:21:32.897Z,8.04
2019-02-14T21:24:04.379Z,7.98
2019-02-14T21:26:34.466Z,7.92
2019-02-14T21:29:06.353Z,7.91
2019-02-14T21:31:36.082Z,7.89
2019-02-14T21:34:09.295Z,7.80
2019-02-14T21:36:38.895Z,7.86
2019-02-14T21:39:08.835Z,7.85
2019-02-14T21:41:38.691Z,7.83
2019-02-14T21:44:08.293Z,7.84
2019-02-14T21:46:46.982Z,7.81
2019-02-14T21:49:25.341Z,7.69
2019-02-14T21:51:55.256Z,7.76
2019-02-14T21:54:25.324Z,7.65
2019-02-14T21:56:54.979Z,7.67
2019-02-14T21:59:24.288Z,7.69
2019-02-14T22:01:54.224Z,7.63
2019-02-14T22:04:23.777Z,7.61
2019-02-14T22:06:53.223Z,7.62
2019-02-14T22:09:22.995Z,7.64
2019-02-14T22:11:52.264Z,7.61
2019-02-14T22:14:21.814Z,7.50
2019-02-14T22:16:51.465Z,7.55
2019-02-14T22:19:23.783Z,7.62
2019-02-14T22:21:53.144Z,7.63
2019-02-14T22:24:22.658Z,7.61
2019-02-14T22:26:51.900Z,7.52
2019-02-14T22:29:21.178Z,7.52
2019-02-14T22:31:50.917Z,7.40
2019-02-14T22:34:20.202Z,7.44
2019-02-14T22:36:49.589Z,7.47
2019-02-14T22:39:19.283Z,7.44
2019-02-14T22:41:48.591Z,7.41
2019-02-14T22:44:17.834Z,7.40
2019-02-14T22:46:47.433Z,7.41
2019-02-14T22:49:16.674Z,7.43
2019-02-14T22:51:46.072Z,7.37
2019-02-14T22:54:15.742Z,7.40
2019-02-14T22:56:45.156Z,7.44
2019-02-14T22:59:14.471Z,7.42
2019-02-14T23:01:45.122Z,7.42
2019-02-14T23:04:14.448Z,7.41
2019-02-14T23:06:43.721Z,7.40
2019-02-14T23:09:17.320Z,7.38
2019-02-14T23:11:49.656Z,7.35
2019-02-14T23:14:20.187Z,7.35
2019-02-14T23:16:49.464Z,7.35
2019-02-14T23:19:18.839Z,7.32
2019-02-14T23:21:48.405Z,7.30
2019-02-14T23:24:17.625Z,7.26
2019-02-14T23:26:47.036Z,7.18
2019-02-14T23:29:16.662Z,7.22
2019-02-14T23:31:45.942Z,7.22
2019-02-14T23:34:15.243Z,7.23
2019-02-14T23:36:44.781Z,7.20
2019-02-14T23:39:14.026Z,7.21
2019-02-14T23:41:45.536Z,7.15
2019-02-14T23:44:14.893Z,7.13
2019-02-14T23:46:46.303Z,7.11
2019-02-14T23:49:15.673Z,7.12
2019-02-14T23:51:46.716Z,7.12
2019-02-14T23:54:16.228Z,7.11
2019-02-14T23:56:45.507Z,7.11
2019-02-14T23:59:15.028Z,6.99
